sensor_id;sensor_type;location;lat;lon;timestamp;pressure;altitude;pressure_sealevel;temperature;humidity
77149;BME280;66122;47.130;16.844;2024-02-23T00:01:29;98072.94;;;10.61;80.01
77149;BME280;66122;47.130;16.844;2024-02-23T00:11:32;98070.28;;;10.61;80.02
77149;BME280;66122;47.130;16.844;2024-02-23T00:21:39;98050.06;;;10.60;80.91
77149;BME280;66122;47.130;16.844;2024-02-23T00:31:45;98071.97;;;10.73;81.07
77149;BME280;66122;47.130;16.844;2024-02-23T00:41:48;98064.88;;;10.63;83.05
77149;BME280;66122;47.130;16.844;2024-02-23T00:51:51;98058.22;;;10.36;87.21
77149;BME280;66122;47.130;16.844;2024-02-23T01:01:54;98041.00;;;10.08;88.84
77149;BME280;66122;47.130;16.844;2024-02-23T01:11:58;98029.34;;;10.00;91.43
77149;BME280;66122;47.130;16.844;2024-02-23T01:22:00;98022.72;;;9.94;92.78
77149;BME280;66122;47.130;16.844;2024-02-23T01:32:03;98040.06;;;10.21;91.61
77149;BME280;66122;47.130;16.844;2024-02-23T01:42:06;98036.44;;;10.22;89.72
77149;BME280;66122;47.130;16.844;2024-02-23T01:52:09;98027.63;;;10.32;87.26
77149;BME280;66122;47.130;16.844;2024-02-23T02:02:11;98064.28;;;10.59;84.29
77149;BME280;66122;47.130;16.844;2024-02-23T02:12:26;98042.38;;;10.57;80.83
77149;BME280;66122;47.130;16.844;2024-02-23T02:22:32;98039.75;;;10.46;81.07
77149;BME280;66122;47.130;16.844;2024-02-23T02:32:36;98051.50;;;10.64;77.87
77149;BME280;66122;47.130;16.844;2024-02-23T02:42:39;98033.16;;;10.40;78.44
77149;BME280;66122;47.130;16.844;2024-02-23T02:52:42;98041.00;;;10.08;81.40
77149;BME280;66122;47.130;16.844;2024-02-23T03:02:44;98070.34;;;10.05;86.75
77149;BME280;66122;47.130;16.844;2024-02-23T03:12:47;98077.78;;;9.56;92.97
77149;BME280;66122;47.130;16.844;2024-02-23T03:22:50;98065.25;;;9.00;97.69
77149;BME280;66122;47.130;16.844;2024-02-23T03:32:53;98083.78;;;8.77;100.00
77149;BME280;66122;47.130;16.844;2024-02-23T03:42:55;98078.13;;;8.57;100.00
77149;BME280;66122;47.130;16.844;2024-02-23T03:52:58;98117.88;;;8.56;100.00
77149;BME280;66122;47.130;16.844;2024-02-23T04:03:01;98083.63;;;8.18;100.00
77149;BME280;66122;47.130;16.844;2024-02-23T04:13:03;98098.72;;;8.16;100.00
77149;BME280;66122;47.130;16.844;2024-02-23T04:23:06;98121.41;;;8.31;100.00
77149;BME280;66122;47.130;16.844;2024-02-23T04:33:10;98121.22;;;8.34;100.00
77149;BME280;66122;47.130;16.844;2024-02-23T04:43:13;98153.47;;;8.50;100.00
77149;BME280;66122;47.130;16.844;2024-02-23T04:53:15;98128.19;;;8.35;100.00
77149;BME280;66122;47.130;16.844;2024-02-23T05:03:18;98167.91;;;8.70;100.00
77149;BME280;66122;47.130;16.844;2024-02-23T05:13:22;98167.78;;;8.95;98.88
77149;BME280;66122;47.130;16.844;2024-02-23T05:23:25;98153.03;;;8.93;96.12
77149;BME280;66122;47.130;16.844;2024-02-23T05:33:28;98203.59;;;9.23;92.27
77149;BME280;66122;47.130;16.844;2024-02-23T05:43:30;98184.50;;;8.96;95.21
77149;BME280;66122;47.130;16.844;2024-02-23T05:53:37;98219.22;;;8.79;99.17
77149;BME280;66122;47.130;16.844;2024-02-23T06:03:40;98220.91;;;8.67;99.65
77149;BME280;66122;47.130;16.844;2024-02-23T06:13:42;98250.47;;;8.72;99.88
77149;BME280;66122;47.130;16.844;2024-02-23T06:23:45;98309.13;;;8.77;100.00
77149;BME280;66122;47.130;16.844;2024-02-23T06:33:49;98262.97;;;8.57;100.00
77149;BME280;66122;47.130;16.844;2024-02-23T06:43:54;98305.84;;;8.74;98.87
77149;BME280;66122;47.130;16.844;2024-02-23T06:53:57;98317.34;;;8.73;98.00
77149;BME280;66122;47.130;16.844;2024-02-23T07:04:00;98337.63;;;8.85;96.57
77149;BME280;66122;47.130;16.844;2024-02-23T07:14:03;98329.72;;;8.85;94.59
77149;BME280;66122;47.130;16.844;2024-02-23T07:24:15;98334.13;;;8.97;93.42
77149;BME280;66122;47.130;16.844;2024-02-23T07:34:17;98338.69;;;9.08;91.53
77149;BME280;66122;47.130;16.844;2024-02-23T07:44:20;98366.22;;;9.29;89.15
77149;BME280;66122;47.130;16.844;2024-02-23T07:54:23;98351.41;;;9.63;85.61
77149;BME280;66122;47.130;16.844;2024-02-23T08:04:26;98356.38;;;9.91;81.98
77149;BME280;66122;47.130;16.844;2024-02-23T08:14:28;98366.09;;;10.14;80.23
77149;BME280;66122;47.130;16.844;2024-02-23T08:24:31;98394.81;;;10.32;81.37
77149;BME280;66122;47.130;16.844;2024-02-23T08:34:34;98388.25;;;10.37;79.27
77149;BME280;66122;47.130;16.844;2024-02-23T08:44:37;98351.00;;;10.28;79.90
77149;BME280;66122;47.130;16.844;2024-02-23T08:54:45;98368.03;;;10.47;77.81
77149;BME280;66122;47.130;16.844;2024-02-23T09:04:47;98377.84;;;10.69;77.94
77149;BME280;66122;47.130;16.844;2024-02-23T09:14:50;98370.38;;;10.74;77.40
77149;BME280;66122;47.130;16.844;2024-02-23T09:24:53;98385.72;;;11.04;77.38
77149;BME280;66122;47.130;16.844;2024-02-23T09:34:56;98364.41;;;11.06;78.56
77149;BME280;66122;47.130;16.844;2024-02-23T09:45:05;98361.25;;;10.78;76.57
77149;BME280;66122;47.130;16.844;2024-02-23T09:55:08;98346.28;;;10.66;77.01
77149;BME280;66122;47.130;16.844;2024-02-23T10:05:11;98369.09;;;10.80;76.79
77149;BME280;66122;47.130;16.844;2024-02-23T10:15:15;98360.03;;;10.82;76.94
77149;BME280;66122;47.130;16.844;2024-02-23T10:25:18;98352.41;;;10.67;78.10
77149;BME280;66122;47.130;16.844;2024-02-23T10:35:21;98384.63;;;10.84;78.56
77149;BME280;66122;47.130;16.844;2024-02-23T10:45:24;98340.00;;;10.56;81.13
77149;BME280;66122;47.130;16.844;2024-02-23T10:55:29;98343.03;;;10.51;82.77
77149;BME280;66122;47.130;16.844;2024-02-23T11:05:33;98327.19;;;10.39;83.09
77149;BME280;66122;47.130;16.844;2024-02-23T11:15:41;98364.81;;;10.55;83.92
77149;BME280;66122;47.130;16.844;2024-02-23T11:25:58;98306.97;;;10.27;85.17
77149;BME280;66122;47.130;16.844;2024-02-23T11:36:06;98295.47;;;10.15;84.72
77149;BME280;66122;47.130;16.844;2024-02-23T11:46:09;98313.38;;;10.46;85.84
77149;BME280;66122;47.130;16.844;2024-02-23T11:56:12;98273.75;;;10.45;85.59
77149;BME280;66122;47.130;16.844;2024-02-23T12:06:15;98264.97;;;10.22;89.09
77149;BME280;66122;47.130;16.844;2024-02-23T12:16:20;98262.69;;;10.40;87.23
77149;BME280;66122;47.130;16.844;2024-02-23T12:26:23;98290.50;;;10.45;86.08
77149;BME280;66122;47.130;16.844;2024-02-23T12:36:26;98275.66;;;10.21;89.64
77149;BME280;66122;47.130;16.844;2024-02-23T12:46:30;98257.50;;;10.27;90.33
77149;BME280;66122;47.130;16.844;2024-02-23T12:56:33;98208.84;;;10.17;89.33
77149;BME280;66122;47.130;16.844;2024-02-23T13:06:37;98205.03;;;10.21;90.94
77149;BME280;66122;47.130;16.844;2024-02-23T13:16:41;98217.66;;;10.40;90.98
77149;BME280;66122;47.130;16.844;2024-02-23T13:26:44;98184.41;;;10.13;92.83
77149;BME280;66122;47.130;16.844;2024-02-23T13:36:47;98182.50;;;10.15;93.75
77149;BME280;66122;47.130;16.844;2024-02-23T13:46:52;98137.69;;;10.01;92.84
77149;BME280;66122;47.130;16.844;2024-02-23T13:56:55;98131.38;;;10.26;90.54
77149;BME280;66122;47.130;16.844;2024-02-23T14:06:58;98154.09;;;10.62;88.96
77149;BME280;66122;47.130;16.844;2024-02-23T14:17:01;98125.91;;;10.72;86.97
77149;BME280;66122;47.130;16.844;2024-02-23T14:27:04;98114.09;;;10.76;84.20
77149;BME280;66122;47.130;16.844;2024-02-23T14:37:07;98086.19;;;10.72;84.16
77149;BME280;66122;47.130;16.844;2024-02-23T14:47:10;98081.22;;;10.79;82.22
77149;BME280;66122;47.130;16.844;2024-02-23T14:57:13;98067.13;;;10.78;83.30
77149;BME280;66122;47.130;16.844;2024-02-23T15:07:15;98104.78;;;10.93;83.16
77149;BME280;66122;47.130;16.844;2024-02-23T15:17:19;98111.84;;;11.04;82.52
77149;BME280;66122;47.130;16.844;2024-02-23T15:27:22;98076.16;;;11.08;79.49
77149;BME280;66122;47.130;16.844;2024-02-23T15:37:26;98078.75;;;11.19;77.65
77149;BME280;66122;47.130;16.844;2024-02-23T15:47:29;98069.06;;;11.29;78.10
77149;BME280;66122;47.130;16.844;2024-02-23T15:57:32;98040.00;;;11.07;79.18
77149;BME280;66122;47.130;16.844;2024-02-23T16:07:35;98044.59;;;11.05;79.82
77149;BME280;66122;47.130;16.844;2024-02-23T16:17:38;98088.84;;;11.25;80.06
77149;BME280;66122;47.130;16.844;2024-02-23T16:27:42;98094.66;;;11.19;81.06
77149;BME280;66122;47.130;16.844;2024-02-23T16:37:45;98032.06;;;10.75;82.87
77149;BME280;66122;47.130;16.844;2024-02-23T16:47:47;98031.06;;;10.55;83.74
77149;BME280;66122;47.130;16.844;2024-02-23T16:57:51;98035.34;;;10.67;84.41
77149;BME280;66122;47.130;16.844;2024-02-23T17:07:55;98038.16;;;10.66;84.45
77149;BME280;66122;47.130;16.844;2024-02-23T17:17:58;98031.31;;;10.52;83.97
77149;BME280;66122;47.130;16.844;2024-02-23T17:28:01;98025.72;;;10.66;82.58
77149;BME280;66122;47.130;16.844;2024-02-23T17:38:03;98032.00;;;10.65;81.71
77149;BME280;66122;47.130;16.844;2024-02-23T17:48:06;98000.69;;;10.59;80.89
77149;BME280;66122;47.130;16.844;2024-02-23T17:58:11;97981.75;;;10.43;82.46
77149;BME280;66122;47.130;16.844;2024-02-23T18:08:22;98019.22;;;10.70;81.29
77149;BME280;66122;47.130;16.844;2024-02-23T18:18:24;98014.50;;;10.74;81.57
77149;BME280;66122;47.130;16.844;2024-02-23T18:28:29;98017.53;;;10.69;81.32
77149;BME280;66122;47.130;16.844;2024-02-23T18:38:34;98002.66;;;10.57;81.15
77149;BME280;66122;47.130;16.844;2024-02-23T18:48:38;97959.84;;;10.41;80.82
77149;BME280;66122;47.130;16.844;2024-02-23T18:58:41;97955.78;;;10.37;81.46
77149;BME280;66122;47.130;16.844;2024-02-23T19:08:44;97967.75;;;10.52;79.70
77149;BME280;66122;47.130;16.844;2024-02-23T19:18:46;97967.03;;;10.50;79.85
77149;BME280;66122;47.130;16.844;2024-02-23T19:28:50;97954.31;;;10.44;79.31
77149;BME280;66122;47.130;16.844;2024-02-23T19:38:53;97957.19;;;10.41;79.69
77149;BME280;66122;47.130;16.844;2024-02-23T19:48:56;97954.00;;;10.26;79.73
77149;BME280;66122;47.130;16.844;2024-02-23T19:58:59;97984.91;;;10.37;80.22
77149;BME280;66122;47.130;16.844;2024-02-23T20:09:02;97961.81;;;10.16;80.37
77149;BME280;66122;47.130;16.844;2024-02-23T20:19:05;98003.91;;;10.42;78.65
77149;BME280;66122;47.130;16.844;2024-02-23T20:29:10;97998.84;;;10.39;77.49
77149;BME280;66122;47.130;16.844;2024-02-23T20:39:12;98013.19;;;10.68;76.27
77149;BME280;66122;47.130;16.844;2024-02-23T20:49:16;98028.69;;;11.05;73.85
77149;BME280;66122;47.130;16.844;2024-02-23T20:59:19;97997.53;;;10.97;73.94
77149;BME280;66122;47.130;16.844;2024-02-23T21:09:21;98012.41;;;11.30;71.23
77149;BME280;66122;47.130;16.844;2024-02-23T21:19:25;97999.72;;;11.13;72.29
77149;BME280;66122;47.130;16.844;2024-02-23T21:29:27;97965.19;;;10.82;73.30
77149;BME280;66122;47.130;16.844;2024-02-23T21:39:30;98003.09;;;11.15;73.07
77149;BME280;66122;47.130;16.844;2024-02-23T21:49:33;97972.63;;;10.88;73.58
77149;BME280;66122;47.130;16.844;2024-02-23T21:59:36;97959.91;;;10.82;73.84
77149;BME280;66122;47.130;16.844;2024-02-23T22:09:39;97978.41;;;10.93;73.44
77149;BME280;66122;47.130;16.844;2024-02-23T22:19:44;97970.44;;;10.73;74.62
77149;BME280;66122;47.130;16.844;2024-02-23T22:29:47;97999.28;;;10.87;73.80
77149;BME280;66122;47.130;16.844;2024-02-23T22:39:50;97973.94;;;10.73;73.80
77149;BME280;66122;47.130;16.844;2024-02-23T22:49:52;97991.97;;;11.00;71.35
77149;BME280;66122;47.130;16.844;2024-02-23T22:59:55;98032.00;;;11.18;71.26
77149;BME280;66122;47.130;16.844;2024-02-23T23:09:57;98030.06;;;10.99;72.24
77149;BME280;66122;47.130;16.844;2024-02-23T23:20:00;98045.28;;;10.86;72.61
77149;BME280;66122;47.130;16.844;2024-02-23T23:30:07;98052.06;;;10.79;73.66
77149;BME280;66122;47.130;16.844;2024-02-23T23:40:10;98060.44;;;10.63;75.10
77149;BME280;66122;47.130;16.844;2024-02-23T23:50:13;98109.88;;;10.74;74.74
